KLRO/LRO METAR and TAF weather

Enter ICAO airport designator
Station Type Date Time Source
KLRO METAR 2022/12/01 00:15 UTC NOAA

KLRO 010015Z AUTO 00000KT 10SM SCT023 SCT033 18/17 A3007 RMK AO2


Station Type Date Time Source
KLRO Decoded METAR 2022/12/01 00:15 UTC NOAA

Station name not available
Nov 30, 2022 - 07:15 PM EST / 2022.12.01 0015 UTC
Wind: Calm:0
Visibility: 10 mile(s):0
Sky conditions: partly cloudy
Temperature: 64 F (18 C)
Dew Point: 62 F (17 C)
Relative Humidity: 93%
Pressure (altimeter): 30.07 in. Hg (1018 hPa)
ob: KLRO 010015Z AUTO 00000KT 10SM SCT023 SCT033 18/17 A3007 RMK AO2
cycle: 0

Station Type Date Time Source
KLRO TAF UTC NOAA

Error!

Example: see airport list